Nagpur Sonegaon, India

11:29 PM IST on September 01, 2015 (GMT +0530)
Nagpur | | Change Station
CLOSE
Current Station
Airport
Location: Nagpur Sonegaon,
Elevation: 1017 ft
Nearby Weather Stations

Elev 1017 ft 21.09 °N, 79.06 °E | Updated 19 minutes ago

Haze
Haze
79 °F
Feels Like 79 °F
N
0
Wind Variable Wind from North

Today
High -- | Low -- °F
--% Chance of Precip.
Yesterday
High -- | Low -- °F
Precip. -- in
5:57 AM 6:30 PM
Waning Gibbous, 87% visible
Pressure 29.77 in
Visibility 2.5 miles
Clouds Few 2000 ft
Mostly Cloudy 10000 ft
Dew Point 72 °F
Humidity 78%
Rainfall 0.00 in
Snow Depth Not available.
UV 0 out of 12
Pollen Not available.
Air Quality Not available.
Flu Activity Not available.
METAR VANP 011740Z 00000KT 4000 HZ FEW020 BKN100 26/22 Q1008 NOSIG
Pressure 29.77 in
Visibility 2.5 miles
Clouds Few 2000 ft
Mostly Cloudy 10000 ft
Dew Point 72 °F
Humidity 78%
Rainfall 0.00 in
Snow Depth Not available.
UV 0 out of 12
Pollen Not available.
Air Quality Not available.
Flu Activity Not available.
METAR VANP 011740Z 00000KT 4000 HZ FEW020 BKN100 26/22 Q1008 NOSIG

10-Day Weather Forecast

×

Almanac

Astronomy

Sep. 01, 2015 Rise Set
Actual Time
Civil Twilight
Nautical Twilight
Astronomical Twilight
Moon
Length of Visible Light
Length of Day
Tomorrow will be .
, % of the Moon is Illuminated

Today's Extremes

Country Highs Country Lows

Community

WunderPhotos

Upload Photos

1,851,569 photos uploaded!

WunderBlogs® & News

Nearby

Air Quality

  Air Quality AQ Index Pollutant
Not available.

Snow Depth

Station Depth Elevation

Earthquake Activity

City Distance Mag. Time & Date
Minimum magnitude displayed is 2.5.

Coastal Water Temperatures

Place Temperature

Stations

Nearby Weather Stations

Station Location Temp. Windchill Dew Point Humidity Wind Precip. Elev Updated Type